sensor_id;sensor_type;location;lat;lon;timestamp;temperature;humidity
56374;DHT22;58212;47.034;7.376;2022-08-11T00:02:27;18.90;99.90
56374;DHT22;58212;47.034;7.376;2022-08-11T00:04:56;18.90;99.90
56374;DHT22;58212;47.034;7.376;2022-08-11T00:07:24;19.10;99.90
56374;DHT22;58212;47.034;7.376;2022-08-11T00:09:54;19.10;99.90
56374;DHT22;58212;47.034;7.376;2022-08-11T00:12:21;19.10;99.90
56374;DHT22;58212;47.034;7.376;2022-08-11T00:14:56;18.90;99.90
56374;DHT22;58212;47.034;7.376;2022-08-11T00:17:27;19.20;99.70
56374;DHT22;58212;47.034;7.376;2022-08-11T00:20:01;19.20;99.90
56374;DHT22;58212;47.034;7.376;2022-08-11T00:22:30;19.20;99.90
56374;DHT22;58212;47.034;7.376;2022-08-11T00:25:00;19.10;99.90
56374;DHT22;58212;47.034;7.376;2022-08-11T00:27:34;19.10;99.90
56374;DHT22;58212;47.034;7.376;2022-08-11T00:30:03;19.10;99.90
56374;DHT22;58212;47.034;7.376;2022-08-11T00:32:31;19.10;99.50
56374;DHT22;58212;47.034;7.376;2022-08-11T00:34:59;19.20;99.90
56374;DHT22;58212;47.034;7.376;2022-08-11T00:37:27;19.00;99.90
56374;DHT22;58212;47.034;7.376;2022-08-11T00:39:56;18.90;99.90
56374;DHT22;58212;47.034;7.376;2022-08-11T00:42:39;18.80;99.90
56374;DHT22;58212;47.034;7.376;2022-08-11T00:45:12;18.80;99.90
56374;DHT22;58212;47.034;7.376;2022-08-11T00:47:55;18.70;99.90
56374;DHT22;58212;47.034;7.376;2022-08-11T00:50:38;18.80;99.90
56374;DHT22;58212;47.034;7.376;2022-08-11T00:53:35;18.70;99.90
56374;DHT22;58212;47.034;7.376;2022-08-11T00:59:32;18.80;99.90
56374;DHT22;58212;47.034;7.376;2022-08-11T01:02:15;18.70;99.90
56374;DHT22;58212;47.034;7.376;2022-08-11T01:08:27;18.50;99.90
56374;DHT22;58212;47.034;7.376;2022-08-11T01:11:17;18.50;99.90
56374;DHT22;58212;47.034;7.376;2022-08-11T01:17:41;18.50;99.90
56374;DHT22;58212;47.034;7.376;2022-08-11T01:20:38;18.40;99.90
56374;DHT22;58212;47.034;7.376;2022-08-11T01:23:50;18.40;99.90
56374;DHT22;58212;47.034;7.376;2022-08-11T01:36:49;18.40;99.90
56374;DHT22;58212;47.034;7.376;2022-08-11T01:42:55;18.40;99.90
56374;DHT22;58212;47.034;7.376;2022-08-11T01:45:51;18.30;99.90
56374;DHT22;58212;47.034;7.376;2022-08-11T01:48:33;18.30;99.90
56374;DHT22;58212;47.034;7.376;2022-08-11T01:51:19;18.30;99.90
56374;DHT22;58212;47.034;7.376;2022-08-11T01:53:54;18.10;99.90
56374;DHT22;58212;47.034;7.376;2022-08-11T01:56:33;18.20;99.90
56374;DHT22;58212;47.034;7.376;2022-08-11T01:59:12;18.00;99.90
56374;DHT22;58212;47.034;7.376;2022-08-11T02:01:53;17.90;99.90
56374;DHT22;58212;47.034;7.376;2022-08-11T02:04:30;17.90;99.90
56374;DHT22;58212;47.034;7.376;2022-08-11T02:07:08;17.90;99.90
56374;DHT22;58212;47.034;7.376;2022-08-11T02:09:55;17.80;99.90
56374;DHT22;58212;47.034;7.376;2022-08-11T02:12:38;17.80;99.90
56374;DHT22;58212;47.034;7.376;2022-08-11T02:15:13;17.70;99.90
56374;DHT22;58212;47.034;7.376;2022-08-11T02:17:49;17.80;99.90
56374;DHT22;58212;47.034;7.376;2022-08-11T02:20:23;17.90;99.90
56374;DHT22;58212;47.034;7.376;2022-08-11T02:23:24;17.70;99.90
56374;DHT22;58212;47.034;7.376;2022-08-11T02:26:11;17.70;99.90
56374;DHT22;58212;47.034;7.376;2022-08-11T02:29:03;17.80;99.90
56374;DHT22;58212;47.034;7.376;2022-08-11T02:31:42;17.80;99.90
56374;DHT22;58212;47.034;7.376;2022-08-11T02:34:37;17.80;99.90
56374;DHT22;58212;47.034;7.376;2022-08-11T02:37:16;17.90;99.90
56374;DHT22;58212;47.034;7.376;2022-08-11T02:39:56;17.90;99.90
56374;DHT22;58212;47.034;7.376;2022-08-11T02:42:32;17.90;99.90
56374;DHT22;58212;47.034;7.376;2022-08-11T02:45:14;17.90;99.90
56374;DHT22;58212;47.034;7.376;2022-08-11T02:47:47;17.80;99.90
56374;DHT22;58212;47.034;7.376;2022-08-11T02:50:38;17.90;99.90
56374;DHT22;58212;47.034;7.376;2022-08-11T02:53:12;17.90;99.90
56374;DHT22;58212;47.034;7.376;2022-08-11T02:55:52;17.80;99.90
56374;DHT22;58212;47.034;7.376;2022-08-11T02:58:35;17.70;99.90
56374;DHT22;58212;47.034;7.376;2022-08-11T03:01:09;17.70;99.90
56374;DHT22;58212;47.034;7.376;2022-08-11T03:03:48;17.70;99.90
56374;DHT22;58212;47.034;7.376;2022-08-11T03:06:26;17.60;99.90
56374;DHT22;58212;47.034;7.376;2022-08-11T03:09:02;17.50;99.90
56374;DHT22;58212;47.034;7.376;2022-08-11T03:11:45;17.60;99.90
56374;DHT22;58212;47.034;7.376;2022-08-11T03:14:45;17.60;99.90
56374;DHT22;58212;47.034;7.376;2022-08-11T03:17:35;17.60;99.90
56374;DHT22;58212;47.034;7.376;2022-08-11T03:20:19;17.60;99.90
56374;DHT22;58212;47.034;7.376;2022-08-11T03:22:56;17.50;99.90
56374;DHT22;58212;47.034;7.376;2022-08-11T03:25:31;17.50;99.90
56374;DHT22;58212;47.034;7.376;2022-08-11T03:28:11;17.50;99.90
56374;DHT22;58212;47.034;7.376;2022-08-11T03:30:49;17.50;99.90
56374;DHT22;58212;47.034;7.376;2022-08-11T03:33:22;17.40;99.90
56374;DHT22;58212;47.034;7.376;2022-08-11T03:36:14;17.40;99.90
56374;DHT22;58212;47.034;7.376;2022-08-11T03:39:00;17.40;99.90
56374;DHT22;58212;47.034;7.376;2022-08-11T03:41:34;17.30;99.90
56374;DHT22;58212;47.034;7.376;2022-08-11T03:44:33;17.20;99.90
56374;DHT22;58212;47.034;7.376;2022-08-11T03:47:22;17.30;99.90
56374;DHT22;58212;47.034;7.376;2022-08-11T03:50:09;17.20;99.90
56374;DHT22;58212;47.034;7.376;2022-08-11T03:52:50;17.10;99.90
56374;DHT22;58212;47.034;7.376;2022-08-11T03:55:29;17.20;99.90
56374;DHT22;58212;47.034;7.376;2022-08-11T03:58:35;17.20;99.90
56374;DHT22;58212;47.034;7.376;2022-08-11T04:04:55;17.20;99.90
56374;DHT22;58212;47.034;7.376;2022-08-11T04:08:01;17.20;99.90
56374;DHT22;58212;47.034;7.376;2022-08-11T04:10:59;17.30;99.90
56374;DHT22;58212;47.034;7.376;2022-08-11T04:20:30;17.30;99.90
56374;DHT22;58212;47.034;7.376;2022-08-11T04:23:39;17.30;99.90
56374;DHT22;58212;47.034;7.376;2022-08-11T04:26:33;17.30;99.90
56374;DHT22;58212;47.034;7.376;2022-08-11T04:29:13;17.30;99.90
56374;DHT22;58212;47.034;7.376;2022-08-11T04:31:59;17.30;99.90
56374;DHT22;58212;47.034;7.376;2022-08-11T04:34:41;17.50;99.90
56374;DHT22;58212;47.034;7.376;2022-08-11T04:37:33;17.50;99.90
56374;DHT22;58212;47.034;7.376;2022-08-11T04:40:27;17.30;99.90
56374;DHT22;58212;47.034;7.376;2022-08-11T04:46:25;17.30;99.90
56374;DHT22;58212;47.034;7.376;2022-08-11T04:49:24;17.30;99.90
56374;DHT22;58212;47.034;7.376;2022-08-11T04:52:27;17.30;99.90
56374;DHT22;58212;47.034;7.376;2022-08-11T04:55:31;17.20;99.90
56374;DHT22;58212;47.034;7.376;2022-08-11T04:58:23;17.40;99.90
56374;DHT22;58212;47.034;7.376;2022-08-11T05:01:23;17.40;99.90
56374;DHT22;58212;47.034;7.376;2022-08-11T05:07:49;17.50;99.90
56374;DHT22;58212;47.034;7.376;2022-08-11T05:10:51;17.70;99.90
56374;DHT22;58212;47.034;7.376;2022-08-11T05:13:27;17.80;99.90
56374;DHT22;58212;47.034;7.376;2022-08-11T05:16:17;19.10;99.90
56374;DHT22;58212;47.034;7.376;2022-08-11T05:19:02;22.10;99.90
56374;DHT22;58212;47.034;7.376;2022-08-11T05:21:52;23.40;99.30
56374;DHT22;58212;47.034;7.376;2022-08-11T05:24:43;24.20;98.10
56374;DHT22;58212;47.034;7.376;2022-08-11T05:27:34;24.50;97.30
56374;DHT22;58212;47.034;7.376;2022-08-11T05:30:19;25.20;95.60
56374;DHT22;58212;47.034;7.376;2022-08-11T05:33:12;25.90;95.50
56374;DHT22;58212;47.034;7.376;2022-08-11T05:36:05;25.90;95.00
56374;DHT22;58212;47.034;7.376;2022-08-11T05:38:34;26.00;94.90
56374;DHT22;58212;47.034;7.376;2022-08-11T05:41:23;26.20;94.20
56374;DHT22;58212;47.034;7.376;2022-08-11T05:44:09;26.30;94.70
56374;DHT22;58212;47.034;7.376;2022-08-11T05:46:54;26.60;93.50
56374;DHT22;58212;47.034;7.376;2022-08-11T05:49:40;26.70;93.60
56374;DHT22;58212;47.034;7.376;2022-08-11T05:52:27;27.00;93.40
56374;DHT22;58212;47.034;7.376;2022-08-11T05:55:13;27.10;92.80
56374;DHT22;58212;47.034;7.376;2022-08-11T05:58:02;27.20;91.90
56374;DHT22;58212;47.034;7.376;2022-08-11T06:00:30;27.50;90.20
56374;DHT22;58212;47.034;7.376;2022-08-11T06:03:00;27.80;87.50
56374;DHT22;58212;47.034;7.376;2022-08-11T06:05:35;27.60;90.30
56374;DHT22;58212;47.034;7.376;2022-08-11T06:08:06;27.40;88.20
56374;DHT22;58212;47.034;7.376;2022-08-11T06:10:42;27.90;88.20
56374;DHT22;58212;47.034;7.376;2022-08-11T06:13:14;27.70;86.50
56374;DHT22;58212;47.034;7.376;2022-08-11T06:15:48;28.40;86.10
56374;DHT22;58212;47.034;7.376;2022-08-11T06:18:16;28.50;85.10
56374;DHT22;58212;47.034;7.376;2022-08-11T06:20:46;28.60;85.90
56374;DHT22;58212;47.034;7.376;2022-08-11T06:23:15;28.00;86.60
56374;DHT22;58212;47.034;7.376;2022-08-11T06:25:44;28.20;86.50
56374;DHT22;58212;47.034;7.376;2022-08-11T06:28:14;27.50;88.60
56374;DHT22;58212;47.034;7.376;2022-08-11T06:30:44;27.70;88.40
56374;DHT22;58212;47.034;7.376;2022-08-11T06:33:14;27.60;90.00
56374;DHT22;58212;47.034;7.376;2022-08-11T06:35:50;25.40;90.70
56374;DHT22;58212;47.034;7.376;2022-08-11T06:38:35;23.70;92.20
56374;DHT22;58212;47.034;7.376;2022-08-11T06:41:17;23.30;93.10
56374;DHT22;58212;47.034;7.376;2022-08-11T06:44:17;22.60;94.10
56374;DHT22;58212;47.034;7.376;2022-08-11T06:46:50;22.00;95.40
56374;DHT22;58212;47.034;7.376;2022-08-11T06:49:21;22.70;95.40
56374;DHT22;58212;47.034;7.376;2022-08-11T06:52:08;23.10;94.30
56374;DHT22;58212;47.034;7.376;2022-08-11T06:54:36;22.50;94.80
56374;DHT22;58212;47.034;7.376;2022-08-11T06:57:07;22.70;94.20
56374;DHT22;58212;47.034;7.376;2022-08-11T06:59:57;23.40;93.50
56374;DHT22;58212;47.034;7.376;2022-08-11T07:02:48;22.60;94.20
56374;DHT22;58212;47.034;7.376;2022-08-11T07:05:22;22.50;94.60
56374;DHT22;58212;47.034;7.376;2022-08-11T07:08:24;23.00;94.10
56374;DHT22;58212;47.034;7.376;2022-08-11T07:11:26;23.50;93.50
56374;DHT22;58212;47.034;7.376;2022-08-11T07:14:29;23.10;93.70
56374;DHT22;58212;47.034;7.376;2022-08-11T07:17:19;23.60;93.20
56374;DHT22;58212;47.034;7.376;2022-08-11T07:19:51;23.80;93.20
56374;DHT22;58212;47.034;7.376;2022-08-11T07:22:36;23.80;93.20
56374;DHT22;58212;47.034;7.376;2022-08-11T07:25:31;23.60;93.00
56374;DHT22;58212;47.034;7.376;2022-08-11T07:28:29;23.80;93.40
56374;DHT22;58212;47.034;7.376;2022-08-11T07:31:20;24.30;92.70
56374;DHT22;58212;47.034;7.376;2022-08-11T07:33:52;24.30;92.40
56374;DHT22;58212;47.034;7.376;2022-08-11T07:36:24;24.00;93.00
56374;DHT22;58212;47.034;7.376;2022-08-11T07:38:56;23.90;93.40
56374;DHT22;58212;47.034;7.376;2022-08-11T07:41:25;24.60;92.30
56374;DHT22;58212;47.034;7.376;2022-08-11T07:43:58;24.30;92.30
56374;DHT22;58212;47.034;7.376;2022-08-11T07:46:35;24.00;92.40
56374;DHT22;58212;47.034;7.376;2022-08-11T07:49:21;24.20;92.90
56374;DHT22;58212;47.034;7.376;2022-08-11T07:52:06;24.50;93.20
56374;DHT22;58212;47.034;7.376;2022-08-11T07:54:52;24.50;92.90
56374;DHT22;58212;47.034;7.376;2022-08-11T07:57:21;24.60;92.70
56374;DHT22;58212;47.034;7.376;2022-08-11T08:00:07;24.50;92.70
56374;DHT22;58212;47.034;7.376;2022-08-11T08:02:52;24.10;93.40
56374;DHT22;58212;47.034;7.376;2022-08-11T08:05:39;24.20;93.20
56374;DHT22;58212;47.034;7.376;2022-08-11T08:08:25;24.00;93.40
56374;DHT22;58212;47.034;7.376;2022-08-11T08:11:13;24.00;93.70
56374;DHT22;58212;47.034;7.376;2022-08-11T08:13:58;24.00;94.20
56374;DHT22;58212;47.034;7.376;2022-08-11T08:16:43;24.00;93.80
56374;DHT22;58212;47.034;7.376;2022-08-11T08:19:29;23.90;93.70
56374;DHT22;58212;47.034;7.376;2022-08-11T08:21:58;24.30;93.70
56374;DHT22;58212;47.034;7.376;2022-08-11T08:24:27;24.00;94.00
56374;DHT22;58212;47.034;7.376;2022-08-11T08:26:57;24.20;94.20
56374;DHT22;58212;47.034;7.376;2022-08-11T08:29:26;24.40;94.00
56374;DHT22;58212;47.034;7.376;2022-08-11T08:32:12;24.40;93.00
56374;DHT22;58212;47.034;7.376;2022-08-11T08:34:41;24.30;93.70
56374;DHT22;58212;47.034;7.376;2022-08-11T08:37:10;24.50;92.80
56374;DHT22;58212;47.034;7.376;2022-08-11T08:39:37;24.40;93.10
56374;DHT22;58212;47.034;7.376;2022-08-11T08:42:09;24.70;92.90
56374;DHT22;58212;47.034;7.376;2022-08-11T08:44:40;24.90;92.70
56374;DHT22;58212;47.034;7.376;2022-08-11T08:47:12;24.60;92.60
56374;DHT22;58212;47.034;7.376;2022-08-11T08:49:44;24.70;93.40
56374;DHT22;58212;47.034;7.376;2022-08-11T08:52:18;25.00;93.10
56374;DHT22;58212;47.034;7.376;2022-08-11T08:54:48;25.00;92.70
56374;DHT22;58212;47.034;7.376;2022-08-11T08:57:21;24.70;92.70
56374;DHT22;58212;47.034;7.376;2022-08-11T08:59:49;24.70;92.90
56374;DHT22;58212;47.034;7.376;2022-08-11T09:02:18;24.90;92.40
56374;DHT22;58212;47.034;7.376;2022-08-11T09:04:47;24.60;93.10
56374;DHT22;58212;47.034;7.376;2022-08-11T09:07:17;24.90;92.70
56374;DHT22;58212;47.034;7.376;2022-08-11T09:09:50;24.80;92.60
56374;DHT22;58212;47.034;7.376;2022-08-11T09:12:19;25.20;93.20
56374;DHT22;58212;47.034;7.376;2022-08-11T09:14:48;25.80;92.90
56374;DHT22;58212;47.034;7.376;2022-08-11T09:17:38;26.00;92.60
56374;DHT22;58212;47.034;7.376;2022-08-11T09:20:08;26.00;92.10
56374;DHT22;58212;47.034;7.376;2022-08-11T09:22:42;25.60;92.20
56374;DHT22;58212;47.034;7.376;2022-08-11T09:25:30;25.30;92.50
56374;DHT22;58212;47.034;7.376;2022-08-11T09:28:16;25.40;92.50
56374;DHT22;58212;47.034;7.376;2022-08-11T09:30:45;25.80;92.30
56374;DHT22;58212;47.034;7.376;2022-08-11T09:33:15;26.30;91.40
56374;DHT22;58212;47.034;7.376;2022-08-11T09:35:46;26.60;91.90
56374;DHT22;58212;47.034;7.376;2022-08-11T09:38:17;25.60;93.20
56374;DHT22;58212;47.034;7.376;2022-08-11T09:41:07;25.20;93.20
56374;DHT22;58212;47.034;7.376;2022-08-11T09:43:37;25.30;93.00
56374;DHT22;58212;47.034;7.376;2022-08-11T09:46:25;25.70;93.10
56374;DHT22;58212;47.034;7.376;2022-08-11T09:48:54;26.10;92.50
56374;DHT22;58212;47.034;7.376;2022-08-11T09:51:24;26.20;93.40
56374;DHT22;58212;47.034;7.376;2022-08-11T09:53:53;26.10;92.60
56374;DHT22;58212;47.034;7.376;2022-08-11T09:56:22;26.40;92.10
56374;DHT22;58212;47.034;7.376;2022-08-11T09:59:07;26.60;92.50
56374;DHT22;58212;47.034;7.376;2022-08-11T10:01:38;26.70;92.60
56374;DHT22;58212;47.034;7.376;2022-08-11T10:04:12;26.30;92.60
56374;DHT22;58212;47.034;7.376;2022-08-11T10:06:42;26.50;92.20
56374;DHT22;58212;47.034;7.376;2022-08-11T10:09:35;26.50;92.30
56374;DHT22;58212;47.034;7.376;2022-08-11T10:12:05;26.30;93.20
56374;DHT22;58212;47.034;7.376;2022-08-11T10:14:36;26.90;91.90
56374;DHT22;58212;47.034;7.376;2022-08-11T10:17:24;27.30;91.90
56374;DHT22;58212;47.034;7.376;2022-08-11T10:19:53;27.00;92.20
56374;DHT22;58212;47.034;7.376;2022-08-11T10:22:22;27.10;91.90
56374;DHT22;58212;47.034;7.376;2022-08-11T10:25:09;27.00;91.90
56374;DHT22;58212;47.034;7.376;2022-08-11T10:28:03;27.50;91.60
56374;DHT22;58212;47.034;7.376;2022-08-11T10:30:31;27.80;91.40
56374;DHT22;58212;47.034;7.376;2022-08-11T10:33:18;28.00;91.70
56374;DHT22;58212;47.034;7.376;2022-08-11T10:36:04;27.50;91.80
56374;DHT22;58212;47.034;7.376;2022-08-11T10:38:33;27.00;92.10
56374;DHT22;58212;47.034;7.376;2022-08-11T10:41:03;27.50;91.50
56374;DHT22;58212;47.034;7.376;2022-08-11T10:43:45;27.40;91.60
56374;DHT22;58212;47.034;7.376;2022-08-11T10:46:12;27.40;92.00
56374;DHT22;58212;47.034;7.376;2022-08-11T10:48:58;27.40;91.60
56374;DHT22;58212;47.034;7.376;2022-08-11T10:51:26;27.70;91.90
56374;DHT22;58212;47.034;7.376;2022-08-11T10:54:12;27.80;92.00
56374;DHT22;58212;47.034;7.376;2022-08-11T10:56:59;27.90;92.00
56374;DHT22;58212;47.034;7.376;2022-08-11T10:59:44;28.10;91.10
56374;DHT22;58212;47.034;7.376;2022-08-11T11:02:13;28.20;91.80
56374;DHT22;58212;47.034;7.376;2022-08-11T11:04:58;27.90;91.20
56374;DHT22;58212;47.034;7.376;2022-08-11T11:07:35;28.10;91.80
56374;DHT22;58212;47.034;7.376;2022-08-11T11:10:05;28.20;90.70
56374;DHT22;58212;47.034;7.376;2022-08-11T11:12:39;28.30;90.70
56374;DHT22;58212;47.034;7.376;2022-08-11T11:15:28;28.20;91.00
56374;DHT22;58212;47.034;7.376;2022-08-11T11:18:18;28.10;91.20
56374;DHT22;58212;47.034;7.376;2022-08-11T11:20:50;28.50;90.30
56374;DHT22;58212;47.034;7.376;2022-08-11T11:23:24;28.50;90.30
56374;DHT22;58212;47.034;7.376;2022-08-11T11:26:30;28.50;90.80
56374;DHT22;58212;47.034;7.376;2022-08-11T11:29:32;28.80;90.20
56374;DHT22;58212;47.034;7.376;2022-08-11T11:32:17;29.40;88.60
56374;DHT22;58212;47.034;7.376;2022-08-11T11:35:16;29.10;89.30
56374;DHT22;58212;47.034;7.376;2022-08-11T11:37:47;29.30;88.70
56374;DHT22;58212;47.034;7.376;2022-08-11T11:40:16;28.90;90.30
56374;DHT22;58212;47.034;7.376;2022-08-11T11:42:48;29.30;89.30
56374;DHT22;58212;47.034;7.376;2022-08-11T11:45:19;29.00;89.60
56374;DHT22;58212;47.034;7.376;2022-08-11T11:47:48;29.50;90.80
56374;DHT22;58212;47.034;7.376;2022-08-11T11:50:22;29.50;89.00
56374;DHT22;58212;47.034;7.376;2022-08-11T11:52:51;29.10;90.30
56374;DHT22;58212;47.034;7.376;2022-08-11T11:55:21;28.70;89.70
56374;DHT22;58212;47.034;7.376;2022-08-11T11:57:49;28.70;90.00
56374;DHT22;58212;47.034;7.376;2022-08-11T12:00:37;29.10;88.90
56374;DHT22;58212;47.034;7.376;2022-08-11T12:03:25;29.10;87.60
56374;DHT22;58212;47.034;7.376;2022-08-11T12:05:53;29.20;88.90
56374;DHT22;58212;47.034;7.376;2022-08-11T12:08:21;29.40;88.20
56374;DHT22;58212;47.034;7.376;2022-08-11T12:10:51;29.60;87.80
56374;DHT22;58212;47.034;7.376;2022-08-11T12:13:44;29.00;88.60
56374;DHT22;58212;47.034;7.376;2022-08-11T12:16:14;29.00;88.30
56374;DHT22;58212;47.034;7.376;2022-08-11T12:18:46;29.50;88.20
56374;DHT22;58212;47.034;7.376;2022-08-11T12:21:14;29.40;89.00
56374;DHT22;58212;47.034;7.376;2022-08-11T12:23:43;29.70;87.40
56374;DHT22;58212;47.034;7.376;2022-08-11T12:26:29;29.60;86.80
56374;DHT22;58212;47.034;7.376;2022-08-11T12:29:21;29.10;86.20
56374;DHT22;58212;47.034;7.376;2022-08-11T12:31:55;29.30;88.00
56374;DHT22;58212;47.034;7.376;2022-08-11T12:34:25;29.60;85.80
56374;DHT22;58212;47.034;7.376;2022-08-11T12:36:56;29.50;86.30
56374;DHT22;58212;47.034;7.376;2022-08-11T12:39:30;29.70;85.30
56374;DHT22;58212;47.034;7.376;2022-08-11T12:42:18;30.00;84.30
56374;DHT22;58212;47.034;7.376;2022-08-11T12:45:09;29.90;86.00
56374;DHT22;58212;47.034;7.376;2022-08-11T12:48:08;29.90;84.90
56374;DHT22;58212;47.034;7.376;2022-08-11T12:50:56;29.80;86.10
56374;DHT22;58212;47.034;7.376;2022-08-11T12:53:45;29.80;82.40
56374;DHT22;58212;47.034;7.376;2022-08-11T12:56:18;29.50;82.30
56374;DHT22;58212;47.034;7.376;2022-08-11T12:59:04;29.90;83.40
56374;DHT22;58212;47.034;7.376;2022-08-11T13:01:49;29.90;83.80
56374;DHT22;58212;47.034;7.376;2022-08-11T13:04:35;29.70;82.20
56374;DHT22;58212;47.034;7.376;2022-08-11T13:07:21;29.80;82.80
56374;DHT22;58212;47.034;7.376;2022-08-11T13:09:49;29.90;83.50
56374;DHT22;58212;47.034;7.376;2022-08-11T13:12:17;29.70;80.30
56374;DHT22;58212;47.034;7.376;2022-08-11T13:15:02;29.90;82.30
56374;DHT22;58212;47.034;7.376;2022-08-11T13:17:29;30.20;81.00
56374;DHT22;58212;47.034;7.376;2022-08-11T13:20:01;30.30;80.40
56374;DHT22;58212;47.034;7.376;2022-08-11T13:22:32;30.20;81.20
56374;DHT22;58212;47.034;7.376;2022-08-11T13:24:59;30.40;80.20
56374;DHT22;58212;47.034;7.376;2022-08-11T13:27:26;30.40;81.20
56374;DHT22;58212;47.034;7.376;2022-08-11T13:29:56;30.10;81.30
56374;DHT22;58212;47.034;7.376;2022-08-11T13:32:38;29.50;81.00
56374;DHT22;58212;47.034;7.376;2022-08-11T13:35:08;29.50;83.70
56374;DHT22;58212;47.034;7.376;2022-08-11T13:37:36;30.20;80.70
56374;DHT22;58212;47.034;7.376;2022-08-11T13:40:07;30.50;79.70
56374;DHT22;58212;47.034;7.376;2022-08-11T13:42:35;30.30;78.40
56374;DHT22;58212;47.034;7.376;2022-08-11T13:45:05;30.50;79.40
56374;DHT22;58212;47.034;7.376;2022-08-11T13:47:33;30.50;80.40
56374;DHT22;58212;47.034;7.376;2022-08-11T13:50:01;30.30;79.40
56374;DHT22;58212;47.034;7.376;2022-08-11T13:52:30;30.50;76.00
56374;DHT22;58212;47.034;7.376;2022-08-11T13:54:58;30.40;78.60
56374;DHT22;58212;47.034;7.376;2022-08-11T13:57:29;30.40;80.30
56374;DHT22;58212;47.034;7.376;2022-08-11T13:59:58;30.10;79.00
56374;DHT22;58212;47.034;7.376;2022-08-11T14:02:40;30.40;80.00
56374;DHT22;58212;47.034;7.376;2022-08-11T14:05:11;30.40;78.20
56374;DHT22;58212;47.034;7.376;2022-08-11T14:07:48;30.40;80.30
56374;DHT22;58212;47.034;7.376;2022-08-11T14:10:18;30.30;76.40
56374;DHT22;58212;47.034;7.376;2022-08-11T14:12:50;30.40;78.90
56374;DHT22;58212;47.034;7.376;2022-08-11T14:15:41;30.40;77.90
56374;DHT22;58212;47.034;7.376;2022-08-11T14:18:13;30.40;77.60
56374;DHT22;58212;47.034;7.376;2022-08-11T14:20:41;30.50;78.10
56374;DHT22;58212;47.034;7.376;2022-08-11T14:23:31;30.60;78.40
56374;DHT22;58212;47.034;7.376;2022-08-11T14:26:01;30.50;77.70
56374;DHT22;58212;47.034;7.376;2022-08-11T14:28:46;30.40;77.20
56374;DHT22;58212;47.034;7.376;2022-08-11T14:31:15;30.40;75.70
56374;DHT22;58212;47.034;7.376;2022-08-11T14:33:43;30.50;76.60
56374;DHT22;58212;47.034;7.376;2022-08-11T14:36:11;30.30;76.60
56374;DHT22;58212;47.034;7.376;2022-08-11T14:38:40;30.30;77.50
56374;DHT22;58212;47.034;7.376;2022-08-11T14:41:08;30.50;77.90
56374;DHT22;58212;47.034;7.376;2022-08-11T14:43:55;30.40;76.00
56374;DHT22;58212;47.034;7.376;2022-08-11T14:46:43;30.20;77.40
56374;DHT22;58212;47.034;7.376;2022-08-11T14:49:28;30.20;76.50
56374;DHT22;58212;47.034;7.376;2022-08-11T14:51:56;30.00;76.70
56374;DHT22;58212;47.034;7.376;2022-08-11T14:54:28;30.20;77.70
56374;DHT22;58212;47.034;7.376;2022-08-11T14:57:22;30.20;76.20
56374;DHT22;58212;47.034;7.376;2022-08-11T14:59:54;30.00;77.50
56374;DHT22;58212;47.034;7.376;2022-08-11T15:02:22;30.00;76.60
56374;DHT22;58212;47.034;7.376;2022-08-11T15:05:07;30.00;77.60
56374;DHT22;58212;47.034;7.376;2022-08-11T15:07:36;29.80;76.80
56374;DHT22;58212;47.034;7.376;2022-08-11T15:10:07;29.80;78.70
56374;DHT22;58212;47.034;7.376;2022-08-11T15:12:36;30.00;77.40
56374;DHT22;58212;47.034;7.376;2022-08-11T15:15:11;30.00;77.30
56374;DHT22;58212;47.034;7.376;2022-08-11T15:17:58;30.00;78.20
56374;DHT22;58212;47.034;7.376;2022-08-11T15:20:27;30.00;77.10
56374;DHT22;58212;47.034;7.376;2022-08-11T15:23:12;29.90;78.00
56374;DHT22;58212;47.034;7.376;2022-08-11T15:26:02;29.90;76.80
56374;DHT22;58212;47.034;7.376;2022-08-11T15:28:33;29.90;77.20
56374;DHT22;58212;47.034;7.376;2022-08-11T15:31:25;29.90;78.60
56374;DHT22;58212;47.034;7.376;2022-08-11T15:34:14;29.60;78.30
56374;DHT22;58212;47.034;7.376;2022-08-11T15:37:05;29.40;78.50
56374;DHT22;58212;47.034;7.376;2022-08-11T15:39:55;29.40;78.40
56374;DHT22;58212;47.034;7.376;2022-08-11T15:42:46;29.50;79.50
56374;DHT22;58212;47.034;7.376;2022-08-11T15:45:35;29.40;79.70
56374;DHT22;58212;47.034;7.376;2022-08-11T15:48:28;29.30;79.90
56374;DHT22;58212;47.034;7.376;2022-08-11T15:51:00;29.20;81.00
56374;DHT22;58212;47.034;7.376;2022-08-11T15:53:33;29.10;80.00
56374;DHT22;58212;47.034;7.376;2022-08-11T15:56:05;29.00;80.00
56374;DHT22;58212;47.034;7.376;2022-08-11T15:58:39;28.90;81.10
56374;DHT22;58212;47.034;7.376;2022-08-11T16:01:24;28.70;80.20
56374;DHT22;58212;47.034;7.376;2022-08-11T16:04:15;28.70;81.80
56374;DHT22;58212;47.034;7.376;2022-08-11T16:06:48;28.70;81.70
56374;DHT22;58212;47.034;7.376;2022-08-11T16:09:21;28.70;81.20
56374;DHT22;58212;47.034;7.376;2022-08-11T16:11:50;28.60;81.70
56374;DHT22;58212;47.034;7.376;2022-08-11T16:14:21;28.60;81.80
56374;DHT22;58212;47.034;7.376;2022-08-11T16:17:10;28.50;80.90
56374;DHT22;58212;47.034;7.376;2022-08-11T16:19:40;28.50;81.60
56374;DHT22;58212;47.034;7.376;2022-08-11T16:22:10;28.50;82.20
56374;DHT22;58212;47.034;7.376;2022-08-11T16:24:40;28.40;81.50
56374;DHT22;58212;47.034;7.376;2022-08-11T16:27:10;28.30;82.20
56374;DHT22;58212;47.034;7.376;2022-08-11T16:29:42;28.30;82.10
56374;DHT22;58212;47.034;7.376;2022-08-11T16:32:12;28.20;82.80
56374;DHT22;58212;47.034;7.376;2022-08-11T16:34:50;28.10;82.50
56374;DHT22;58212;47.034;7.376;2022-08-11T16:37:36;28.10;83.70
56374;DHT22;58212;47.034;7.376;2022-08-11T16:40:21;28.10;83.70
56374;DHT22;58212;47.034;7.376;2022-08-11T16:42:50;28.00;84.10
56374;DHT22;58212;47.034;7.376;2022-08-11T16:45:38;28.00;83.70
56374;DHT22;58212;47.034;7.376;2022-08-11T16:48:27;28.10;84.00
56374;DHT22;58212;47.034;7.376;2022-08-11T16:50:56;28.00;83.50
56374;DHT22;58212;47.034;7.376;2022-08-11T16:53:27;27.90;82.50
56374;DHT22;58212;47.034;7.376;2022-08-11T16:55:55;27.90;84.10
56374;DHT22;58212;47.034;7.376;2022-08-11T16:58:30;27.90;84.20
56374;DHT22;58212;47.034;7.376;2022-08-11T17:01:18;27.80;83.50
56374;DHT22;58212;47.034;7.376;2022-08-11T17:03:51;27.70;84.40
56374;DHT22;58212;47.034;7.376;2022-08-11T17:06:39;27.80;84.00
56374;DHT22;58212;47.034;7.376;2022-08-11T17:09:29;27.80;84.30
56374;DHT22;58212;47.034;7.376;2022-08-11T17:12:17;27.80;84.10
56374;DHT22;58212;47.034;7.376;2022-08-11T17:15:08;27.60;85.20
56374;DHT22;58212;47.034;7.376;2022-08-11T17:18:00;27.50;85.20
56374;DHT22;58212;47.034;7.376;2022-08-11T17:20:29;27.30;86.10
56374;DHT22;58212;47.034;7.376;2022-08-11T17:22:57;27.30;87.20
56374;DHT22;58212;47.034;7.376;2022-08-11T17:25:42;27.20;86.70
56374;DHT22;58212;47.034;7.376;2022-08-11T17:28:14;27.10;87.00